sensor_id;sensor_type;location;lat;lon;timestamp;P1;durP1;ratioP1;P2;durP2;ratioP2
16524;SDS011;8375;33.594;-117.718;2023-04-25T00:00:04;13.97;;;5.87;;
16524;SDS011;8375;33.594;-117.718;2023-04-25T00:02:34;13.03;;;4.77;;
16524;SDS011;8375;33.594;-117.718;2023-04-25T00:05:03;16.20;;;5.73;;
16524;SDS011;8375;33.594;-117.718;2023-04-25T00:07:33;13.00;;;5.93;;
16524;SDS011;8375;33.594;-117.718;2023-04-25T00:10:02;10.70;;;5.60;;
16524;SDS011;8375;33.594;-117.718;2023-04-25T00:12:31;11.80;;;5.20;;
16524;SDS011;8375;33.594;-117.718;2023-04-25T00:15:01;9.60;;;5.50;;
16524;SDS011;8375;33.594;-117.718;2023-04-25T00:17:32;12.43;;;5.60;;
16524;SDS011;8375;33.594;-117.718;2023-04-25T00:20:04;10.13;;;5.37;;
16524;SDS011;8375;33.594;-117.718;2023-04-25T00:22:35;11.90;;;5.43;;
16524;SDS011;8375;33.594;-117.718;2023-04-25T00:25:04;12.47;;;6.00;;
16524;SDS011;8375;33.594;-117.718;2023-04-25T00:27:34;9.67;;;6.00;;
16524;SDS011;8375;33.594;-117.718;2023-04-25T00:30:06;11.47;;;6.13;;
16524;SDS011;8375;33.594;-117.718;2023-04-25T00:32:36;10.50;;;5.83;;
16524;SDS011;8375;33.594;-117.718;2023-04-25T00:35:05;12.60;;;6.33;;
16524;SDS011;8375;33.594;-117.718;2023-04-25T00:37:33;9.73;;;5.37;;
16524;SDS011;8375;33.594;-117.718;2023-04-25T00:40:02;11.77;;;5.93;;
16524;SDS011;8375;33.594;-117.718;2023-04-25T00:42:33;11.33;;;6.50;;
16524;SDS011;8375;33.594;-117.718;2023-04-25T00:45:04;12.70;;;6.30;;
16524;SDS011;8375;33.594;-117.718;2023-04-25T00:47:36;11.97;;;5.97;;
16524;SDS011;8375;33.594;-117.718;2023-04-25T00:50:06;10.40;;;5.27;;
16524;SDS011;8375;33.594;-117.718;2023-04-25T00:52:35;12.03;;;6.13;;
16524;SDS011;8375;33.594;-117.718;2023-04-25T00:55:05;12.43;;;5.87;;
16524;SDS011;8375;33.594;-117.718;2023-04-25T00:57:35;15.07;;;6.90;;
16524;SDS011;8375;33.594;-117.718;2023-04-25T01:00:05;14.87;;;5.63;;
16524;SDS011;8375;33.594;-117.718;2023-04-25T01:02:39;9.57;;;5.70;;
16524;SDS011;8375;33.594;-117.718;2023-04-25T01:05:10;12.47;;;5.83;;
16524;SDS011;8375;33.594;-117.718;2023-04-25T01:07:39;10.83;;;5.97;;
16524;SDS011;8375;33.594;-117.718;2023-04-25T01:10:08;12.13;;;6.53;;
16524;SDS011;8375;33.594;-117.718;2023-04-25T01:12:37;11.17;;;6.10;;
16524;SDS011;8375;33.594;-117.718;2023-04-25T01:15:06;14.03;;;5.80;;
16524;SDS011;8375;33.594;-117.718;2023-04-25T01:17:37;14.30;;;6.20;;
16524;SDS011;8375;33.594;-117.718;2023-04-25T01:20:07;13.33;;;5.90;;
16524;SDS011;8375;33.594;-117.718;2023-04-25T01:22:38;13.67;;;6.70;;
16524;SDS011;8375;33.594;-117.718;2023-04-25T01:25:07;12.50;;;6.80;;
16524;SDS011;8375;33.594;-117.718;2023-04-25T01:27:36;14.20;;;6.77;;
16524;SDS011;8375;33.594;-117.718;2023-04-25T01:30:05;11.43;;;6.43;;
16524;SDS011;8375;33.594;-117.718;2023-04-25T01:32:35;15.33;;;6.47;;
16524;SDS011;8375;33.594;-117.718;2023-04-25T01:35:05;13.10;;;7.33;;
16524;SDS011;8375;33.594;-117.718;2023-04-25T01:37:35;17.70;;;6.87;;
16524;SDS011;8375;33.594;-117.718;2023-04-25T01:40:07;12.07;;;6.87;;
16524;SDS011;8375;33.594;-117.718;2023-04-25T01:42:37;15.27;;;6.50;;
16524;SDS011;8375;33.594;-117.718;2023-04-25T01:45:08;16.30;;;6.80;;
16524;SDS011;8375;33.594;-117.718;2023-04-25T01:47:38;15.40;;;7.10;;
16524;SDS011;8375;33.594;-117.718;2023-04-25T01:50:09;14.00;;;6.97;;
16524;SDS011;8375;33.594;-117.718;2023-04-25T01:52:40;9.67;;;6.33;;
16524;SDS011;8375;33.594;-117.718;2023-04-25T01:55:09;14.60;;;6.73;;
16524;SDS011;8375;33.594;-117.718;2023-04-25T01:57:38;14.57;;;7.10;;
16524;SDS011;8375;33.594;-117.718;2023-04-25T02:00:07;14.30;;;7.10;;
16524;SDS011;8375;33.594;-117.718;2023-04-25T02:02:39;15.87;;;7.53;;
16524;SDS011;8375;33.594;-117.718;2023-04-25T02:05:08;14.83;;;7.37;;
16524;SDS011;8375;33.594;-117.718;2023-04-25T02:07:37;15.00;;;7.83;;
16524;SDS011;8375;33.594;-117.718;2023-04-25T02:10:08;14.53;;;6.70;;
16524;SDS011;8375;33.594;-117.718;2023-04-25T02:12:37;12.43;;;7.33;;
16524;SDS011;8375;33.594;-117.718;2023-04-25T02:15:06;13.40;;;7.23;;
16524;SDS011;8375;33.594;-117.718;2023-04-25T02:17:35;12.23;;;6.63;;
16524;SDS011;8375;33.594;-117.718;2023-04-25T02:20:05;15.00;;;7.73;;
16524;SDS011;8375;33.594;-117.718;2023-04-25T02:22:34;12.70;;;6.20;;
16524;SDS011;8375;33.594;-117.718;2023-04-25T02:25:03;16.00;;;7.40;;
16524;SDS011;8375;33.594;-117.718;2023-04-25T02:27:34;13.63;;;7.07;;
16524;SDS011;8375;33.594;-117.718;2023-04-25T02:30:03;11.10;;;6.90;;
16524;SDS011;8375;33.594;-117.718;2023-04-25T02:32:33;10.23;;;6.33;;
16524;SDS011;8375;33.594;-117.718;2023-04-25T02:35:02;11.33;;;6.70;;
16524;SDS011;8375;33.594;-117.718;2023-04-25T02:37:31;13.87;;;6.90;;
16524;SDS011;8375;33.594;-117.718;2023-04-25T02:40:00;10.40;;;7.37;;
16524;SDS011;8375;33.594;-117.718;2023-04-25T02:42:30;14.57;;;7.10;;
16524;SDS011;8375;33.594;-117.718;2023-04-25T02:45:00;13.63;;;7.10;;
16524;SDS011;8375;33.594;-117.718;2023-04-25T02:47:29;14.60;;;6.70;;
16524;SDS011;8375;33.594;-117.718;2023-04-25T02:49:58;12.93;;;7.17;;
16524;SDS011;8375;33.594;-117.718;2023-04-25T02:52:27;12.13;;;6.83;;
16524;SDS011;8375;33.594;-117.718;2023-04-25T02:54:55;12.30;;;6.93;;
16524;SDS011;8375;33.594;-117.718;2023-04-25T02:57:24;14.40;;;6.47;;
16524;SDS011;8375;33.594;-117.718;2023-04-25T02:59:53;13.13;;;6.57;;
16524;SDS011;8375;33.594;-117.718;2023-04-25T03:02:23;15.30;;;6.70;;
16524;SDS011;8375;33.594;-117.718;2023-04-25T03:04:52;15.80;;;7.23;;
16524;SDS011;8375;33.594;-117.718;2023-04-25T03:07:21;13.33;;;6.90;;
16524;SDS011;8375;33.594;-117.718;2023-04-25T03:09:49;8.90;;;5.93;;
16524;SDS011;8375;33.594;-117.718;2023-04-25T03:12:18;13.90;;;7.47;;
16524;SDS011;8375;33.594;-117.718;2023-04-25T03:14:47;15.20;;;6.60;;
16524;SDS011;8375;33.594;-117.718;2023-04-25T03:17:16;13.47;;;7.70;;
16524;SDS011;8375;33.594;-117.718;2023-04-25T03:19:46;10.60;;;6.37;;
16524;SDS011;8375;33.594;-117.718;2023-04-25T03:22:15;17.50;;;7.67;;
16524;SDS011;8375;33.594;-117.718;2023-04-25T03:24:43;13.87;;;6.60;;
16524;SDS011;8375;33.594;-117.718;2023-04-25T03:27:12;11.63;;;6.70;;
16524;SDS011;8375;33.594;-117.718;2023-04-25T03:29:41;11.00;;;6.83;;
16524;SDS011;8375;33.594;-117.718;2023-04-25T03:32:10;12.50;;;6.83;;
16524;SDS011;8375;33.594;-117.718;2023-04-25T03:34:38;12.67;;;6.73;;
16524;SDS011;8375;33.594;-117.718;2023-04-25T03:37:09;11.57;;;7.00;;
16524;SDS011;8375;33.594;-117.718;2023-04-25T03:39:37;13.23;;;6.70;;
16524;SDS011;8375;33.594;-117.718;2023-04-25T03:42:06;15.47;;;6.83;;
16524;SDS011;8375;33.594;-117.718;2023-04-25T03:44:35;16.77;;;6.50;;
16524;SDS011;8375;33.594;-117.718;2023-04-25T03:47:03;12.33;;;6.33;;
16524;SDS011;8375;33.594;-117.718;2023-04-25T03:49:32;14.00;;;6.57;;
16524;SDS011;8375;33.594;-117.718;2023-04-25T03:52:02;11.73;;;5.90;;
16524;SDS011;8375;33.594;-117.718;2023-04-25T03:54:32;17.77;;;6.47;;
16524;SDS011;8375;33.594;-117.718;2023-04-25T03:57:01;11.50;;;6.40;;
16524;SDS011;8375;33.594;-117.718;2023-04-25T03:59:30;10.07;;;6.07;;
16524;SDS011;8375;33.594;-117.718;2023-04-25T04:01:59;14.77;;;7.03;;
16524;SDS011;8375;33.594;-117.718;2023-04-25T04:04:28;13.07;;;6.13;;
16524;SDS011;8375;33.594;-117.718;2023-04-25T04:06:56;17.40;;;6.23;;
16524;SDS011;8375;33.594;-117.718;2023-04-25T04:09:25;13.27;;;6.43;;
16524;SDS011;8375;33.594;-117.718;2023-04-25T04:11:55;12.23;;;6.23;;
16524;SDS011;8375;33.594;-117.718;2023-04-25T04:14:24;15.93;;;7.17;;
16524;SDS011;8375;33.594;-117.718;2023-04-25T04:16:53;16.30;;;6.77;;
16524;SDS011;8375;33.594;-117.718;2023-04-25T04:19:22;15.07;;;6.43;;
16524;SDS011;8375;33.594;-117.718;2023-04-25T04:21:51;18.90;;;7.00;;
16524;SDS011;8375;33.594;-117.718;2023-04-25T04:24:19;12.67;;;6.93;;
16524;SDS011;8375;33.594;-117.718;2023-04-25T04:26:48;16.93;;;6.80;;
16524;SDS011;8375;33.594;-117.718;2023-04-25T04:29:19;13.13;;;6.57;;
16524;SDS011;8375;33.594;-117.718;2023-04-25T04:31:48;14.27;;;5.97;;
16524;SDS011;8375;33.594;-117.718;2023-04-25T04:34:18;18.97;;;6.20;;
16524;SDS011;8375;33.594;-117.718;2023-04-25T04:36:47;14.33;;;6.87;;
16524;SDS011;8375;33.594;-117.718;2023-04-25T04:39:16;16.77;;;6.20;;
16524;SDS011;8375;33.594;-117.718;2023-04-25T04:41:44;10.83;;;6.87;;
16524;SDS011;8375;33.594;-117.718;2023-04-25T04:44:13;14.83;;;6.93;;
16524;SDS011;8375;33.594;-117.718;2023-04-25T04:46:44;14.07;;;7.03;;
16524;SDS011;8375;33.594;-117.718;2023-04-25T04:49:12;13.00;;;6.50;;
16524;SDS011;8375;33.594;-117.718;2023-04-25T04:51:41;11.83;;;7.00;;
16524;SDS011;8375;33.594;-117.718;2023-04-25T04:54:11;14.33;;;6.60;;
16524;SDS011;8375;33.594;-117.718;2023-04-25T04:56:40;14.33;;;6.73;;
16524;SDS011;8375;33.594;-117.718;2023-04-25T04:59:09;13.20;;;6.80;;
16524;SDS011;8375;33.594;-117.718;2023-04-25T05:01:37;11.77;;;7.00;;
16524;SDS011;8375;33.594;-117.718;2023-04-25T05:04:08;15.87;;;7.43;;
16524;SDS011;8375;33.594;-117.718;2023-04-25T05:06:36;13.70;;;7.03;;
16524;SDS011;8375;33.594;-117.718;2023-04-25T05:09:06;12.17;;;6.70;;
16524;SDS011;8375;33.594;-117.718;2023-04-25T05:11:34;12.57;;;5.83;;
16524;SDS011;8375;33.594;-117.718;2023-04-25T05:14:03;11.43;;;6.57;;
16524;SDS011;8375;33.594;-117.718;2023-04-25T05:16:32;12.00;;;6.17;;
16524;SDS011;8375;33.594;-117.718;2023-04-25T05:19:00;16.17;;;6.70;;
16524;SDS011;8375;33.594;-117.718;2023-04-25T05:21:31;12.00;;;6.63;;
16524;SDS011;8375;33.594;-117.718;2023-04-25T05:24:00;14.63;;;6.93;;
16524;SDS011;8375;33.594;-117.718;2023-04-25T05:26:28;12.40;;;6.20;;
16524;SDS011;8375;33.594;-117.718;2023-04-25T05:28:57;9.73;;;5.97;;
16524;SDS011;8375;33.594;-117.718;2023-04-25T05:31:26;12.10;;;6.67;;
16524;SDS011;8375;33.594;-117.718;2023-04-25T05:33:55;15.57;;;7.30;;
16524;SDS011;8375;33.594;-117.718;2023-04-25T05:36:23;14.70;;;6.60;;
16524;SDS011;8375;33.594;-117.718;2023-04-25T05:38:54;15.90;;;6.87;;
16524;SDS011;8375;33.594;-117.718;2023-04-25T05:41:23;13.90;;;7.10;;
16524;SDS011;8375;33.594;-117.718;2023-04-25T05:43:51;15.07;;;7.13;;
16524;SDS011;8375;33.594;-117.718;2023-04-25T05:46:20;13.73;;;7.30;;
16524;SDS011;8375;33.594;-117.718;2023-04-25T05:48:49;15.23;;;7.17;;
16524;SDS011;8375;33.594;-117.718;2023-04-25T05:51:17;13.37;;;7.40;;
16524;SDS011;8375;33.594;-117.718;2023-04-25T05:53:46;16.70;;;8.17;;
16524;SDS011;8375;33.594;-117.718;2023-04-25T05:56:16;14.67;;;7.93;;
16524;SDS011;8375;33.594;-117.718;2023-04-25T05:58:45;16.73;;;8.40;;
16524;SDS011;8375;33.594;-117.718;2023-04-25T06:01:14;11.40;;;7.63;;
16524;SDS011;8375;33.594;-117.718;2023-04-25T06:03:43;15.93;;;8.87;;
16524;SDS011;8375;33.594;-117.718;2023-04-25T06:06:12;15.80;;;8.47;;
16524;SDS011;8375;33.594;-117.718;2023-04-25T06:08:40;12.27;;;8.43;;
16524;SDS011;8375;33.594;-117.718;2023-04-25T06:11:09;15.37;;;8.17;;
16524;SDS011;8375;33.594;-117.718;2023-04-25T06:13:40;16.90;;;8.43;;
16524;SDS011;8375;33.594;-117.718;2023-04-25T06:16:08;17.47;;;8.27;;
16524;SDS011;8375;33.594;-117.718;2023-04-25T06:18:37;14.37;;;8.33;;
16524;SDS011;8375;33.594;-117.718;2023-04-25T06:21:06;16.77;;;8.97;;
16524;SDS011;8375;33.594;-117.718;2023-04-25T06:23:34;15.37;;;9.10;;
16524;SDS011;8375;33.594;-117.718;2023-04-25T06:26:03;15.60;;;8.60;;
16524;SDS011;8375;33.594;-117.718;2023-04-25T06:28:32;14.13;;;8.33;;
16524;SDS011;8375;33.594;-117.718;2023-04-25T06:31:02;17.33;;;8.40;;
16524;SDS011;8375;33.594;-117.718;2023-04-25T06:33:31;16.90;;;7.50;;
16524;SDS011;8375;33.594;-117.718;2023-04-25T06:36:00;14.87;;;8.47;;
16524;SDS011;8375;33.594;-117.718;2023-04-25T06:38:29;20.00;;;9.27;;
16524;SDS011;8375;33.594;-117.718;2023-04-25T06:40:57;17.17;;;7.90;;
16524;SDS011;8375;33.594;-117.718;2023-04-25T06:43:26;19.67;;;8.37;;
16524;SDS011;8375;33.594;-117.718;2023-04-25T06:45:58;16.67;;;8.30;;
16524;SDS011;8375;33.594;-117.718;2023-04-25T06:48:29;15.80;;;8.57;;
16524;SDS011;8375;33.594;-117.718;2023-04-25T06:50:57;21.37;;;9.33;;
16524;SDS011;8375;33.594;-117.718;2023-04-25T06:53:26;17.57;;;8.43;;
16524;SDS011;8375;33.594;-117.718;2023-04-25T06:55:55;17.03;;;8.23;;
16524;SDS011;8375;33.594;-117.718;2023-04-25T06:58:24;17.20;;;8.80;;
16524;SDS011;8375;33.594;-117.718;2023-04-25T07:00:53;16.77;;;8.77;;
16524;SDS011;8375;33.594;-117.718;2023-04-25T07:03:22;23.93;;;9.73;;
16524;SDS011;8375;33.594;-117.718;2023-04-25T07:05:52;16.70;;;8.47;;
16524;SDS011;8375;33.594;-117.718;2023-04-25T07:08:21;17.83;;;9.00;;
16524;SDS011;8375;33.594;-117.718;2023-04-25T07:10:50;13.17;;;8.53;;
16524;SDS011;8375;33.594;-117.718;2023-04-25T07:13:18;16.83;;;9.00;;
16524;SDS011;8375;33.594;-117.718;2023-04-25T07:15:47;12.63;;;7.63;;
16524;SDS011;8375;33.594;-117.718;2023-04-25T07:18:16;19.80;;;8.70;;
16524;SDS011;8375;33.594;-117.718;2023-04-25T07:20:45;21.07;;;9.03;;
16524;SDS011;8375;33.594;-117.718;2023-04-25T07:23:15;20.27;;;8.97;;
16524;SDS011;8375;33.594;-117.718;2023-04-25T07:25:44;19.57;;;9.20;;
16524;SDS011;8375;33.594;-117.718;2023-04-25T07:28:13;19.23;;;8.90;;
16524;SDS011;8375;33.594;-117.718;2023-04-25T07:30:44;18.47;;;9.20;;
16524;SDS011;8375;33.594;-117.718;2023-04-25T07:33:12;17.00;;;8.60;;
16524;SDS011;8375;33.594;-117.718;2023-04-25T07:35:41;22.03;;;10.03;;
16524;SDS011;8375;33.594;-117.718;2023-04-25T07:38:10;19.30;;;8.73;;
16524;SDS011;8375;33.594;-117.718;2023-04-25T07:40:40;15.93;;;9.17;;
16524;SDS011;8375;33.594;-117.718;2023-04-25T07:43:09;19.27;;;8.20;;
16524;SDS011;8375;33.594;-117.718;2023-04-25T07:45:42;20.17;;;9.13;;
16524;SDS011;8375;33.594;-117.718;2023-04-25T07:48:11;16.90;;;9.67;;
16524;SDS011;8375;33.594;-117.718;2023-04-25T07:50:41;13.60;;;9.30;;
16524;SDS011;8375;33.594;-117.718;2023-04-25T07:53:09;16.50;;;8.70;;
16524;SDS011;8375;33.594;-117.718;2023-04-25T07:55:40;15.33;;;8.77;;
16524;SDS011;8375;33.594;-117.718;2023-04-25T07:58:09;18.83;;;10.07;;
16524;SDS011;8375;33.594;-117.718;2023-04-25T08:00:39;17.10;;;9.47;;
16524;SDS011;8375;33.594;-117.718;2023-04-25T08:03:09;17.87;;;9.63;;
16524;SDS011;8375;33.594;-117.718;2023-04-25T08:05:38;21.07;;;9.90;;
16524;SDS011;8375;33.594;-117.718;2023-04-25T08:08:06;15.50;;;8.20;;
16524;SDS011;8375;33.594;-117.718;2023-04-25T08:10:35;15.37;;;8.70;;
16524;SDS011;8375;33.594;-117.718;2023-04-25T08:13:05;16.73;;;9.03;;
16524;SDS011;8375;33.594;-117.718;2023-04-25T08:15:34;18.00;;;9.37;;
16524;SDS011;8375;33.594;-117.718;2023-04-25T08:18:03;20.33;;;8.97;;
16524;SDS011;8375;33.594;-117.718;2023-04-25T08:20:32;15.83;;;9.50;;
16524;SDS011;8375;33.594;-117.718;2023-04-25T08:23:01;16.17;;;9.07;;
16524;SDS011;8375;33.594;-117.718;2023-04-25T08:25:30;17.57;;;8.67;;
16524;SDS011;8375;33.594;-117.718;2023-04-25T08:27:58;18.10;;;9.23;;
16524;SDS011;8375;33.594;-117.718;2023-04-25T08:30:30;19.47;;;8.90;;
16524;SDS011;8375;33.594;-117.718;2023-04-25T08:32:59;15.47;;;8.33;;
16524;SDS011;8375;33.594;-117.718;2023-04-25T08:35:27;14.67;;;8.57;;
16524;SDS011;8375;33.594;-117.718;2023-04-25T08:37:56;13.73;;;9.10;;
16524;SDS011;8375;33.594;-117.718;2023-04-25T08:40:26;13.90;;;9.50;;
16524;SDS011;8375;33.594;-117.718;2023-04-25T08:42:56;20.20;;;9.80;;
16524;SDS011;8375;33.594;-117.718;2023-04-25T08:45:31;14.60;;;7.97;;
16524;SDS011;8375;33.594;-117.718;2023-04-25T08:48:01;18.53;;;8.93;;
16524;SDS011;8375;33.594;-117.718;2023-04-25T08:50:31;17.63;;;8.20;;
16524;SDS011;8375;33.594;-117.718;2023-04-25T08:53:00;17.37;;;9.30;;
16524;SDS011;8375;33.594;-117.718;2023-04-25T08:55:38;14.63;;;9.07;;
16524;SDS011;8375;33.594;-117.718;2023-04-25T08:58:10;19.13;;;10.27;;
16524;SDS011;8375;33.594;-117.718;2023-04-25T09:00:41;14.83;;;9.17;;
16524;SDS011;8375;33.594;-117.718;2023-04-25T09:03:10;17.87;;;8.77;;
16524;SDS011;8375;33.594;-117.718;2023-04-25T09:05:39;21.60;;;9.53;;
16524;SDS011;8375;33.594;-117.718;2023-04-25T09:08:09;17.87;;;8.80;;
16524;SDS011;8375;33.594;-117.718;2023-04-25T09:10:38;14.60;;;9.77;;
16524;SDS011;8375;33.594;-117.718;2023-04-25T09:13:08;16.80;;;9.53;;
16524;SDS011;8375;33.594;-117.718;2023-04-25T09:15:49;17.47;;;9.33;;
16524;SDS011;8375;33.594;-117.718;2023-04-25T09:18:25;17.53;;;8.47;;
16524;SDS011;8375;33.594;-117.718;2023-04-25T09:20:54;18.97;;;8.80;;
16524;SDS011;8375;33.594;-117.718;2023-04-25T09:23:23;16.90;;;9.27;;
16524;SDS011;8375;33.594;-117.718;2023-04-25T09:25:52;20.83;;;10.50;;
16524;SDS011;8375;33.594;-117.718;2023-04-25T09:28:24;18.37;;;9.80;;
16524;SDS011;8375;33.594;-117.718;2023-04-25T09:30:56;15.17;;;8.97;;
16524;SDS011;8375;33.594;-117.718;2023-04-25T09:33:28;19.00;;;9.23;;
16524;SDS011;8375;33.594;-117.718;2023-04-25T09:36:01;14.50;;;8.73;;
16524;SDS011;8375;33.594;-117.718;2023-04-25T09:38:32;19.60;;;8.97;;
16524;SDS011;8375;33.594;-117.718;2023-04-25T09:41:07;21.93;;;9.63;;
16524;SDS011;8375;33.594;-117.718;2023-04-25T09:43:36;18.40;;;9.37;;
16524;SDS011;8375;33.594;-117.718;2023-04-25T09:46:09;19.30;;;9.07;;
16524;SDS011;8375;33.594;-117.718;2023-04-25T09:48:39;15.83;;;8.20;;
16524;SDS011;8375;33.594;-117.718;2023-04-25T09:51:08;16.90;;;8.63;;
16524;SDS011;8375;33.594;-117.718;2023-04-25T09:53:39;17.37;;;9.30;;
16524;SDS011;8375;33.594;-117.718;2023-04-25T09:56:09;16.13;;;8.87;;
16524;SDS011;8375;33.594;-117.718;2023-04-25T09:58:39;17.33;;;8.70;;
16524;SDS011;8375;33.594;-117.718;2023-04-25T10:01:10;13.53;;;7.87;;
16524;SDS011;8375;33.594;-117.718;2023-04-25T10:03:39;16.93;;;9.00;;
16524;SDS011;8375;33.594;-117.718;2023-04-25T10:06:09;18.47;;;9.03;;
16524;SDS011;8375;33.594;-117.718;2023-04-25T10:08:43;17.53;;;9.40;;
16524;SDS011;8375;33.594;-117.718;2023-04-25T10:11:12;14.13;;;8.10;;
16524;SDS011;8375;33.594;-117.718;2023-04-25T10:13:43;14.70;;;8.97;;
16524;SDS011;8375;33.594;-117.718;2023-04-25T10:16:15;15.00;;;8.13;;
16524;SDS011;8375;33.594;-117.718;2023-04-25T10:18:44;14.80;;;8.03;;
16524;SDS011;8375;33.594;-117.718;2023-04-25T10:21:13;22.47;;;9.10;;
16524;SDS011;8375;33.594;-117.718;2023-04-25T10:23:43;14.73;;;8.17;;
16524;SDS011;8375;33.594;-117.718;2023-04-25T10:26:14;12.13;;;7.97;;
16524;SDS011;8375;33.594;-117.718;2023-04-25T10:28:55;19.10;;;9.43;;
16524;SDS011;8375;33.594;-117.718;2023-04-25T10:31:26;17.80;;;8.43;;
16524;SDS011;8375;33.594;-117.718;2023-04-25T10:33:56;17.77;;;8.93;;
16524;SDS011;8375;33.594;-117.718;2023-04-25T10:36:26;20.37;;;9.20;;
16524;SDS011;8375;33.594;-117.718;2023-04-25T10:39:02;16.33;;;8.80;;
16524;SDS011;8375;33.594;-117.718;2023-04-25T10:41:45;19.23;;;8.03;;
16524;SDS011;8375;33.594;-117.718;2023-04-25T10:44:15;12.73;;;8.57;;
16524;SDS011;8375;33.594;-117.718;2023-04-25T10:46:45;20.73;;;9.07;;
16524;SDS011;8375;33.594;-117.718;2023-04-25T10:49:28;16.33;;;8.47;;
16524;SDS011;8375;33.594;-117.718;2023-04-25T10:54:54;15.73;;;9.37;;
16524;SDS011;8375;33.594;-117.718;2023-04-25T10:57:26;16.90;;;8.27;;
16524;SDS011;8375;33.594;-117.718;2023-04-25T10:59:59;21.57;;;9.47;;
16524;SDS011;8375;33.594;-117.718;2023-04-25T11:02:38;18.27;;;8.90;;
16524;SDS011;8375;33.594;-117.718;2023-04-25T11:05:10;16.17;;;8.40;;
16524;SDS011;8375;33.594;-117.718;2023-04-25T11:07:49;13.43;;;9.03;;
16524;SDS011;8375;33.594;-117.718;2023-04-25T11:10:20;14.23;;;8.80;;
16524;SDS011;8375;33.594;-117.718;2023-04-25T11:12:54;15.37;;;8.63;;
16524;SDS011;8375;33.594;-117.718;2023-04-25T11:15:23;16.67;;;8.43;;
16524;SDS011;8375;33.594;-117.718;2023-04-25T11:17:54;15.57;;;8.20;;
16524;SDS011;8375;33.594;-117.718;2023-04-25T11:20:25;12.33;;;8.20;;
16524;SDS011;8375;33.594;-117.718;2023-04-25T11:22:57;17.63;;;7.77;;
16524;SDS011;8375;33.594;-117.718;2023-04-25T11:25:27;19.80;;;9.17;;
16524;SDS011;8375;33.594;-117.718;2023-04-25T11:27:57;16.17;;;8.03;;
16524;SDS011;8375;33.594;-117.718;2023-04-25T11:30:28;16.57;;;8.73;;
16524;SDS011;8375;33.594;-117.718;2023-04-25T11:32:59;11.50;;;7.63;;
16524;SDS011;8375;33.594;-117.718;2023-04-25T11:35:28;12.57;;;7.73;;
16524;SDS011;8375;33.594;-117.718;2023-04-25T11:37:59;11.37;;;8.03;;
16524;SDS011;8375;33.594;-117.718;2023-04-25T11:40:28;15.67;;;7.57;;
16524;SDS011;8375;33.594;-117.718;2023-04-25T11:42:59;14.83;;;7.73;;
16524;SDS011;8375;33.594;-117.718;2023-04-25T11:45:28;13.30;;;7.73;;
16524;SDS011;8375;33.594;-117.718;2023-04-25T11:47:59;12.10;;;7.90;;
16524;SDS011;8375;33.594;-117.718;2023-04-25T11:50:29;15.07;;;7.70;;
16524;SDS011;8375;33.594;-117.718;2023-04-25T11:52:58;14.97;;;7.27;;
16524;SDS011;8375;33.594;-117.718;2023-04-25T11:55:27;12.93;;;7.60;;
16524;SDS011;8375;33.594;-117.718;2023-04-25T11:57:59;11.20;;;7.23;;
16524;SDS011;8375;33.594;-117.718;2023-04-25T12:00:29;13.23;;;7.47;;
16524;SDS011;8375;33.594;-117.718;2023-04-25T12:03:00;16.40;;;8.27;;
16524;SDS011;8375;33.594;-117.718;2023-04-25T12:05:29;11.17;;;7.63;;
16524;SDS011;8375;33.594;-117.718;2023-04-25T12:10:43;14.40;;;7.60;;
16524;SDS011;8375;33.594;-117.718;2023-04-25T12:13:20;11.63;;;6.63;;
16524;SDS011;8375;33.594;-117.718;2023-04-25T12:15:50;11.83;;;6.60;;
16524;SDS011;8375;33.594;-117.718;2023-04-25T12:18:22;14.10;;;7.30;;
16524;SDS011;8375;33.594;-117.718;2023-04-25T12:20:53;10.07;;;7.03;;
16524;SDS011;8375;33.594;-117.718;2023-04-25T12:23:25;15.47;;;7.60;;
16524;SDS011;8375;33.594;-117.718;2023-04-25T12:25:56;10.50;;;6.53;;
16524;SDS011;8375;33.594;-117.718;2023-04-25T12:28:25;11.00;;;6.83;;
16524;SDS011;8375;33.594;-117.718;2023-04-25T12:30:57;11.53;;;7.23;;
16524;SDS011;8375;33.594;-117.718;2023-04-25T12:33:28;12.40;;;6.80;;
16524;SDS011;8375;33.594;-117.718;2023-04-25T12:35:59;11.97;;;7.00;;
16524;SDS011;8375;33.594;-117.718;2023-04-25T12:38:30;12.07;;;7.40;;
16524;SDS011;8375;33.594;-117.718;2023-04-25T12:41:03;13.27;;;7.20;;
16524;SDS011;8375;33.594;-117.718;2023-04-25T12:43:32;12.77;;;7.57;;
16524;SDS011;8375;33.594;-117.718;2023-04-25T12:46:01;10.37;;;6.50;;
16524;SDS011;8375;33.594;-117.718;2023-04-25T12:48:32;11.63;;;6.90;;
16524;SDS011;8375;33.594;-117.718;2023-04-25T12:51:00;13.50;;;6.93;;
16524;SDS011;8375;33.594;-117.718;2023-04-25T12:53:29;9.07;;;7.27;;
16524;SDS011;8375;33.594;-117.718;2023-04-25T12:55:58;15.00;;;7.00;;
16524;SDS011;8375;33.594;-117.718;2023-04-25T12:58:27;12.80;;;7.37;;
16524;SDS011;8375;33.594;-117.718;2023-04-25T13:00:56;12.93;;;7.40;;
16524;SDS011;8375;33.594;-117.718;2023-04-25T13:03:25;11.67;;;7.57;;
16524;SDS011;8375;33.594;-117.718;2023-04-25T13:05:55;12.37;;;6.90;;
16524;SDS011;8375;33.594;-117.718;2023-04-25T13:08:24;11.63;;;7.00;;
16524;SDS011;8375;33.594;-117.718;2023-04-25T13:10:53;11.87;;;6.50;;
16524;SDS011;8375;33.594;-117.718;2023-04-25T13:13:22;10.67;;;6.87;;
16524;SDS011;8375;33.594;-117.718;2023-04-25T13:15:52;14.13;;;7.00;;
16524;SDS011;8375;33.594;-117.718;2023-04-25T13:18:21;10.80;;;7.07;;
16524;SDS011;8375;33.594;-117.718;2023-04-25T13:20:52;15.53;;;7.23;;
16524;SDS011;8375;33.594;-117.718;2023-04-25T13:23:22;10.67;;;8.17;;
16524;SDS011;8375;33.594;-117.718;2023-04-25T13:25:52;13.13;;;6.63;;
16524;SDS011;8375;33.594;-117.718;2023-04-25T13:28:23;11.17;;;6.70;;
16524;SDS011;8375;33.594;-117.718;2023-04-25T13:30:52;9.53;;;6.93;;
16524;SDS011;8375;33.594;-117.718;2023-04-25T13:33:21;11.30;;;6.80;;
16524;SDS011;8375;33.594;-117.718;2023-04-25T13:35:50;11.67;;;6.70;;
16524;SDS011;8375;33.594;-117.718;2023-04-25T13:38:20;10.00;;;6.37;;
16524;SDS011;8375;33.594;-117.718;2023-04-25T13:40:51;8.13;;;6.07;;
16524;SDS011;8375;33.594;-117.718;2023-04-25T13:43:20;9.47;;;6.50;;
16524;SDS011;8375;33.594;-117.718;2023-04-25T13:45:49;10.57;;;6.60;;
16524;SDS011;8375;33.594;-117.718;2023-04-25T13:48:18;11.07;;;6.80;;
16524;SDS011;8375;33.594;-117.718;2023-04-25T13:50:48;11.23;;;6.57;;
16524;SDS011;8375;33.594;-117.718;2023-04-25T13:53:17;11.70;;;6.83;;
16524;SDS011;8375;33.594;-117.718;2023-04-25T13:55:48;12.07;;;6.83;;
16524;SDS011;8375;33.594;-117.718;2023-04-25T13:58:17;8.87;;;6.13;;
16524;SDS011;8375;33.594;-117.718;2023-04-25T14:00:46;12.47;;;6.10;;
16524;SDS011;8375;33.594;-117.718;2023-04-25T14:03:15;10.17;;;6.63;;
16524;SDS011;8375;33.594;-117.718;2023-04-25T14:05:44;10.40;;;5.87;;
16524;SDS011;8375;33.594;-117.718;2023-04-25T14:08:12;8.80;;;7.10;;
16524;SDS011;8375;33.594;-117.718;2023-04-25T14:10:41;9.27;;;6.07;;
16524;SDS011;8375;33.594;-117.718;2023-04-25T14:13:12;8.87;;;6.03;;
16524;SDS011;8375;33.594;-117.718;2023-04-25T14:15:40;9.83;;;6.57;;
16524;SDS011;8375;33.594;-117.718;2023-04-25T14:18:10;9.73;;;5.70;;
16524;SDS011;8375;33.594;-117.718;2023-04-25T14:20:38;11.70;;;6.87;;
16524;SDS011;8375;33.594;-117.718;2023-04-25T14:23:07;9.10;;;6.00;;
16524;SDS011;8375;33.594;-117.718;2023-04-25T14:25:36;11.50;;;5.30;;
16524;SDS011;8375;33.594;-117.718;2023-04-25T14:28:05;8.33;;;5.40;;